sensor_id;sensor_type;location;lat;lon;timestamp;temperature;humidity
11538;DHT22;50159;49.426;11.182;2023-06-22T00:01:14;18.00;99.90
11538;DHT22;50159;49.426;11.182;2023-06-22T00:03:41;18.00;99.90
11538;DHT22;50159;49.426;11.182;2023-06-22T00:06:08;18.00;99.90
11538;DHT22;50159;49.426;11.182;2023-06-22T00:08:34;17.90;99.90
11538;DHT22;50159;49.426;11.182;2023-06-22T00:11:01;17.90;99.90
11538;DHT22;50159;49.426;11.182;2023-06-22T00:13:28;17.90;99.90
11538;DHT22;50159;49.426;11.182;2023-06-22T00:15:55;17.80;99.90
11538;DHT22;50159;49.426;11.182;2023-06-22T00:18:21;17.80;99.90
11538;DHT22;50159;49.426;11.182;2023-06-22T00:20:48;17.70;99.90
11538;DHT22;50159;49.426;11.182;2023-06-22T00:23:15;17.70;99.90
11538;DHT22;50159;49.426;11.182;2023-06-22T00:25:43;17.70;99.90
11538;DHT22;50159;49.426;11.182;2023-06-22T00:28:10;17.70;99.90
11538;DHT22;50159;49.426;11.182;2023-06-22T00:30:37;17.60;99.90
11538;DHT22;50159;49.426;11.182;2023-06-22T00:33:03;17.60;99.90
11538;DHT22;50159;49.426;11.182;2023-06-22T00:35:32;17.60;99.90
11538;DHT22;50159;49.426;11.182;2023-06-22T00:37:59;17.60;99.90
11538;DHT22;50159;49.426;11.182;2023-06-22T00:40:31;17.60;99.90
11538;DHT22;50159;49.426;11.182;2023-06-22T00:42:58;17.60;99.90
11538;DHT22;50159;49.426;11.182;2023-06-22T00:45:26;17.50;99.90
11538;DHT22;50159;49.426;11.182;2023-06-22T00:47:55;17.50;99.90
11538;DHT22;50159;49.426;11.182;2023-06-22T00:50:24;17.50;99.90
11538;DHT22;50159;49.426;11.182;2023-06-22T00:52:57;17.50;99.90
11538;DHT22;50159;49.426;11.182;2023-06-22T00:55:25;17.50;99.90
11538;DHT22;50159;49.426;11.182;2023-06-22T00:57:53;17.50;99.90
11538;DHT22;50159;49.426;11.182;2023-06-22T01:00:24;17.40;99.90
11538;DHT22;50159;49.426;11.182;2023-06-22T01:02:52;17.40;99.90
11538;DHT22;50159;49.426;11.182;2023-06-22T01:05:21;17.30;99.90
11538;DHT22;50159;49.426;11.182;2023-06-22T01:07:56;17.30;99.90
11538;DHT22;50159;49.426;11.182;2023-06-22T01:10:27;17.20;99.90
11538;DHT22;50159;49.426;11.182;2023-06-22T01:13:01;17.20;99.90
11538;DHT22;50159;49.426;11.182;2023-06-22T01:15:33;17.10;99.90
11538;DHT22;50159;49.426;11.182;2023-06-22T01:18:04;17.20;99.90
11538;DHT22;50159;49.426;11.182;2023-06-22T01:20:34;17.20;99.90
11538;DHT22;50159;49.426;11.182;2023-06-22T01:23:21;17.10;99.90
11538;DHT22;50159;49.426;11.182;2023-06-22T01:26:17;17.10;99.90
11538;DHT22;50159;49.426;11.182;2023-06-22T01:28:46;17.10;99.90
11538;DHT22;50159;49.426;11.182;2023-06-22T01:31:16;17.10;99.90
11538;DHT22;50159;49.426;11.182;2023-06-22T01:33:55;17.10;99.90
11538;DHT22;50159;49.426;11.182;2023-06-22T01:36:24;17.10;99.90
11538;DHT22;50159;49.426;11.182;2023-06-22T01:38:52;17.20;99.90
11538;DHT22;50159;49.426;11.182;2023-06-22T01:41:20;17.10;99.90
11538;DHT22;50159;49.426;11.182;2023-06-22T01:43:48;17.10;99.90
11538;DHT22;50159;49.426;11.182;2023-06-22T01:46:16;17.10;99.90
11538;DHT22;50159;49.426;11.182;2023-06-22T01:48:46;17.00;99.90
11538;DHT22;50159;49.426;11.182;2023-06-22T01:51:13;17.00;99.90
11538;DHT22;50159;49.426;11.182;2023-06-22T01:53:40;17.00;99.90
11538;DHT22;50159;49.426;11.182;2023-06-22T01:56:08;17.00;99.90
11538;DHT22;50159;49.426;11.182;2023-06-22T01:58:37;16.90;99.90
11538;DHT22;50159;49.426;11.182;2023-06-22T02:01:12;16.90;99.90
11538;DHT22;50159;49.426;11.182;2023-06-22T02:03:54;16.90;99.90
11538;DHT22;50159;49.426;11.182;2023-06-22T02:06:36;16.80;99.90
11538;DHT22;50159;49.426;11.182;2023-06-22T02:09:08;16.80;99.90
11538;DHT22;50159;49.426;11.182;2023-06-22T02:11:37;16.80;99.90
11538;DHT22;50159;49.426;11.182;2023-06-22T02:14:05;16.80;99.90
11538;DHT22;50159;49.426;11.182;2023-06-22T02:16:33;16.80;99.90
11538;DHT22;50159;49.426;11.182;2023-06-22T02:19:01;16.80;99.90
11538;DHT22;50159;49.426;11.182;2023-06-22T02:21:32;16.80;99.90
11538;DHT22;50159;49.426;11.182;2023-06-22T02:23:59;16.80;99.90
11538;DHT22;50159;49.426;11.182;2023-06-22T02:26:26;16.80;99.90
11538;DHT22;50159;49.426;11.182;2023-06-22T02:28:53;16.80;99.90
11538;DHT22;50159;49.426;11.182;2023-06-22T02:31:20;16.80;99.90
11538;DHT22;50159;49.426;11.182;2023-06-22T02:33:47;16.80;99.90
11538;DHT22;50159;49.426;11.182;2023-06-22T02:36:15;16.70;99.90
11538;DHT22;50159;49.426;11.182;2023-06-22T02:38:42;16.70;99.90
11538;DHT22;50159;49.426;11.182;2023-06-22T02:41:17;16.70;99.90
11538;DHT22;50159;49.426;11.182;2023-06-22T02:43:47;16.70;99.90
11538;DHT22;50159;49.426;11.182;2023-06-22T02:46:14;16.60;99.90
11538;DHT22;50159;49.426;11.182;2023-06-22T02:48:42;16.60;99.90
11538;DHT22;50159;49.426;11.182;2023-06-22T02:51:11;16.50;99.90
11538;DHT22;50159;49.426;11.182;2023-06-22T02:53:38;16.50;99.90
11538;DHT22;50159;49.426;11.182;2023-06-22T02:56:05;16.60;99.90
11538;DHT22;50159;49.426;11.182;2023-06-22T02:58:32;16.60;99.90
11538;DHT22;50159;49.426;11.182;2023-06-22T03:01:05;16.60;99.90
11538;DHT22;50159;49.426;11.182;2023-06-22T03:03:32;16.60;99.90
11538;DHT22;50159;49.426;11.182;2023-06-22T03:05:59;16.70;99.90
11538;DHT22;50159;49.426;11.182;2023-06-22T03:08:28;16.70;99.90
11538;DHT22;50159;49.426;11.182;2023-06-22T03:10:55;16.70;99.90
11538;DHT22;50159;49.426;11.182;2023-06-22T03:13:23;16.70;99.90
11538;DHT22;50159;49.426;11.182;2023-06-22T03:15:50;16.70;99.90
11538;DHT22;50159;49.426;11.182;2023-06-22T03:18:16;16.70;99.90
11538;DHT22;50159;49.426;11.182;2023-06-22T03:20:43;16.70;99.90
11538;DHT22;50159;49.426;11.182;2023-06-22T03:23:10;16.60;99.90
11538;DHT22;50159;49.426;11.182;2023-06-22T03:25:36;16.70;99.90
11538;DHT22;50159;49.426;11.182;2023-06-22T03:28:03;16.70;99.90
11538;DHT22;50159;49.426;11.182;2023-06-22T03:30:30;16.70;99.90
11538;DHT22;50159;49.426;11.182;2023-06-22T03:32:57;16.70;99.90
11538;DHT22;50159;49.426;11.182;2023-06-22T03:35:24;16.60;99.90
11538;DHT22;50159;49.426;11.182;2023-06-22T03:37:50;16.60;99.90
11538;DHT22;50159;49.426;11.182;2023-06-22T03:40:17;16.60;99.90
11538;DHT22;50159;49.426;11.182;2023-06-22T03:42:44;16.60;99.90
11538;DHT22;50159;49.426;11.182;2023-06-22T03:45:11;16.60;99.90
11538;DHT22;50159;49.426;11.182;2023-06-22T03:47:38;16.60;99.90
11538;DHT22;50159;49.426;11.182;2023-06-22T03:50:05;16.60;99.90
11538;DHT22;50159;49.426;11.182;2023-06-22T03:52:32;16.70;99.90
11538;DHT22;50159;49.426;11.182;2023-06-22T03:54:59;16.70;99.90
11538;DHT22;50159;49.426;11.182;2023-06-22T03:57:26;16.60;99.90
11538;DHT22;50159;49.426;11.182;2023-06-22T03:59:56;16.70;99.90
11538;DHT22;50159;49.426;11.182;2023-06-22T04:02:23;16.70;99.90
11538;DHT22;50159;49.426;11.182;2023-06-22T04:04:50;16.70;99.90
11538;DHT22;50159;49.426;11.182;2023-06-22T04:07:16;16.70;99.90
11538;DHT22;50159;49.426;11.182;2023-06-22T04:09:44;16.70;99.90
11538;DHT22;50159;49.426;11.182;2023-06-22T04:12:11;16.80;99.90
11538;DHT22;50159;49.426;11.182;2023-06-22T04:14:37;16.80;99.90
11538;DHT22;50159;49.426;11.182;2023-06-22T04:17:04;16.80;99.90
11538;DHT22;50159;49.426;11.182;2023-06-22T04:19:31;16.80;99.90
11538;DHT22;50159;49.426;11.182;2023-06-22T04:21:58;16.90;99.90
11538;DHT22;50159;49.426;11.182;2023-06-22T04:24:24;16.90;99.90
11538;DHT22;50159;49.426;11.182;2023-06-22T04:26:51;16.90;99.90
11538;DHT22;50159;49.426;11.182;2023-06-22T04:29:21;17.00;99.90
11538;DHT22;50159;49.426;11.182;2023-06-22T04:31:55;17.00;99.90
11538;DHT22;50159;49.426;11.182;2023-06-22T04:34:25;17.10;99.90
11538;DHT22;50159;49.426;11.182;2023-06-22T04:36:54;17.10;99.90
11538;DHT22;50159;49.426;11.182;2023-06-22T04:39:21;17.10;99.90
11538;DHT22;50159;49.426;11.182;2023-06-22T04:41:48;17.20;99.90
11538;DHT22;50159;49.426;11.182;2023-06-22T04:44:18;17.20;99.90
11538;DHT22;50159;49.426;11.182;2023-06-22T04:46:53;17.30;99.90
11538;DHT22;50159;49.426;11.182;2023-06-22T04:49:35;17.40;99.90
11538;DHT22;50159;49.426;11.182;2023-06-22T04:52:07;17.40;99.90
11538;DHT22;50159;49.426;11.182;2023-06-22T04:54:36;17.50;99.90
11538;DHT22;50159;49.426;11.182;2023-06-22T04:57:04;17.60;99.90
11538;DHT22;50159;49.426;11.182;2023-06-22T04:59:31;17.70;99.90
11538;DHT22;50159;49.426;11.182;2023-06-22T05:02:00;17.70;99.90
11538;DHT22;50159;49.426;11.182;2023-06-22T05:04:28;17.80;99.90
11538;DHT22;50159;49.426;11.182;2023-06-22T05:06:59;17.80;99.90
11538;DHT22;50159;49.426;11.182;2023-06-22T05:09:26;18.00;99.90
11538;DHT22;50159;49.426;11.182;2023-06-22T05:11:53;18.10;99.90
11538;DHT22;50159;49.426;11.182;2023-06-22T05:14:20;18.20;99.90
11538;DHT22;50159;49.426;11.182;2023-06-22T05:16:46;18.30;99.90
11538;DHT22;50159;49.426;11.182;2023-06-22T05:19:13;18.40;99.90
11538;DHT22;50159;49.426;11.182;2023-06-22T05:21:40;18.60;99.90
11538;DHT22;50159;49.426;11.182;2023-06-22T05:24:07;18.70;99.90
11538;DHT22;50159;49.426;11.182;2023-06-22T05:26:34;18.80;99.90
11538;DHT22;50159;49.426;11.182;2023-06-22T05:29:02;19.00;99.90
11538;DHT22;50159;49.426;11.182;2023-06-22T05:31:29;19.20;99.90
11538;DHT22;50159;49.426;11.182;2023-06-22T05:33:56;19.30;99.90
11538;DHT22;50159;49.426;11.182;2023-06-22T05:36:23;19.50;99.90
11538;DHT22;50159;49.426;11.182;2023-06-22T05:38:52;19.60;99.90
11538;DHT22;50159;49.426;11.182;2023-06-22T05:41:19;19.80;99.90
11538;DHT22;50159;49.426;11.182;2023-06-22T05:43:46;19.80;99.90
11538;DHT22;50159;49.426;11.182;2023-06-22T05:46:13;20.00;99.90
11538;DHT22;50159;49.426;11.182;2023-06-22T05:48:39;20.10;99.90
11538;DHT22;50159;49.426;11.182;2023-06-22T05:51:06;20.20;99.90
11538;DHT22;50159;49.426;11.182;2023-06-22T05:53:33;20.40;99.90
11538;DHT22;50159;49.426;11.182;2023-06-22T05:56:00;20.50;99.90
11538;DHT22;50159;49.426;11.182;2023-06-22T05:58:27;20.50;99.90
11538;DHT22;50159;49.426;11.182;2023-06-22T06:00:53;20.70;99.90
11538;DHT22;50159;49.426;11.182;2023-06-22T06:03:20;20.80;99.90
11538;DHT22;50159;49.426;11.182;2023-06-22T06:05:47;20.90;99.90
11538;DHT22;50159;49.426;11.182;2023-06-22T06:08:14;21.00;99.90
11538;DHT22;50159;49.426;11.182;2023-06-22T06:10:41;21.20;99.90
11538;DHT22;50159;49.426;11.182;2023-06-22T06:13:07;21.20;99.90
11538;DHT22;50159;49.426;11.182;2023-06-22T06:15:34;21.40;99.90
11538;DHT22;50159;49.426;11.182;2023-06-22T06:18:01;21.50;99.90
11538;DHT22;50159;49.426;11.182;2023-06-22T06:20:31;21.60;99.90
11538;DHT22;50159;49.426;11.182;2023-06-22T06:22:59;21.70;99.90
11538;DHT22;50159;49.426;11.182;2023-06-22T06:25:25;21.90;99.90
11538;DHT22;50159;49.426;11.182;2023-06-22T06:27:53;22.00;99.90
11538;DHT22;50159;49.426;11.182;2023-06-22T06:30:21;22.10;99.90
11538;DHT22;50159;49.426;11.182;2023-06-22T06:32:49;22.20;99.90
11538;DHT22;50159;49.426;11.182;2023-06-22T06:35:16;22.40;99.90
11538;DHT22;50159;49.426;11.182;2023-06-22T06:37:46;22.50;99.90
11538;DHT22;50159;49.426;11.182;2023-06-22T06:40:13;22.60;99.90
11538;DHT22;50159;49.426;11.182;2023-06-22T06:42:45;22.70;99.90
11538;DHT22;50159;49.426;11.182;2023-06-22T06:45:16;22.80;99.90
11538;DHT22;50159;49.426;11.182;2023-06-22T06:47:43;22.90;99.90
11538;DHT22;50159;49.426;11.182;2023-06-22T06:50:10;23.10;99.90
11538;DHT22;50159;49.426;11.182;2023-06-22T06:52:38;23.20;99.90
11538;DHT22;50159;49.426;11.182;2023-06-22T06:55:05;23.30;99.90
11538;DHT22;50159;49.426;11.182;2023-06-22T06:57:35;23.40;99.90
11538;DHT22;50159;49.426;11.182;2023-06-22T07:00:05;23.60;99.90
11538;DHT22;50159;49.426;11.182;2023-06-22T07:02:37;23.70;99.90
11538;DHT22;50159;49.426;11.182;2023-06-22T07:05:04;23.80;99.90
11538;DHT22;50159;49.426;11.182;2023-06-22T07:07:31;23.90;99.90
11538;DHT22;50159;49.426;11.182;2023-06-22T07:10:01;24.00;99.90
11538;DHT22;50159;49.426;11.182;2023-06-22T07:12:30;24.10;99.90
11538;DHT22;50159;49.426;11.182;2023-06-22T07:15:07;24.30;99.90
11538;DHT22;50159;49.426;11.182;2023-06-22T07:17:35;24.40;99.90
11538;DHT22;50159;49.426;11.182;2023-06-22T07:20:03;24.50;99.90
11538;DHT22;50159;49.426;11.182;2023-06-22T07:22:35;24.60;99.90
11538;DHT22;50159;49.426;11.182;2023-06-22T07:25:02;24.80;99.90
11538;DHT22;50159;49.426;11.182;2023-06-22T07:27:31;24.80;99.80
11538;DHT22;50159;49.426;11.182;2023-06-22T07:30:02;24.90;99.00
11538;DHT22;50159;49.426;11.182;2023-06-22T07:32:29;25.10;98.20
11538;DHT22;50159;49.426;11.182;2023-06-22T07:34:56;25.20;98.00
11538;DHT22;50159;49.426;11.182;2023-06-22T07:37:22;25.30;97.10
11538;DHT22;50159;49.426;11.182;2023-06-22T07:39:49;25.40;96.00
11538;DHT22;50159;49.426;11.182;2023-06-22T07:42:20;25.50;95.20
11538;DHT22;50159;49.426;11.182;2023-06-22T07:44:46;25.70;94.50
11538;DHT22;50159;49.426;11.182;2023-06-22T07:47:13;25.70;93.40
11538;DHT22;50159;49.426;11.182;2023-06-22T07:49:40;25.90;93.20
11538;DHT22;50159;49.426;11.182;2023-06-22T07:52:07;26.10;92.60
11538;DHT22;50159;49.426;11.182;2023-06-22T07:54:33;26.20;91.90
11538;DHT22;50159;49.426;11.182;2023-06-22T07:57:00;26.30;90.60
11538;DHT22;50159;49.426;11.182;2023-06-22T07:59:27;26.40;90.10
11538;DHT22;50159;49.426;11.182;2023-06-22T08:01:54;26.50;88.50
11538;DHT22;50159;49.426;11.182;2023-06-22T08:04:21;26.60;88.00
11538;DHT22;50159;49.426;11.182;2023-06-22T08:06:48;26.60;85.10
11538;DHT22;50159;49.426;11.182;2023-06-22T08:09:15;26.70;86.00
11538;DHT22;50159;49.426;11.182;2023-06-22T08:11:42;26.90;85.00
11538;DHT22;50159;49.426;11.182;2023-06-22T08:14:08;27.00;83.50
11538;DHT22;50159;49.426;11.182;2023-06-22T08:16:35;27.10;81.90
11538;DHT22;50159;49.426;11.182;2023-06-22T08:19:02;27.20;81.90
11538;DHT22;50159;49.426;11.182;2023-06-22T08:21:29;27.30;80.30
11538;DHT22;50159;49.426;11.182;2023-06-22T08:23:55;27.40;77.80
11538;DHT22;50159;49.426;11.182;2023-06-22T08:26:22;27.50;78.10
11538;DHT22;50159;49.426;11.182;2023-06-22T08:28:49;27.60;77.90
11538;DHT22;50159;49.426;11.182;2023-06-22T08:31:16;27.70;75.00
11538;DHT22;50159;49.426;11.182;2023-06-22T08:33:43;27.70;75.20
11538;DHT22;50159;49.426;11.182;2023-06-22T08:36:15;27.80;74.00
11538;DHT22;50159;49.426;11.182;2023-06-22T08:38:42;27.90;71.90
11538;DHT22;50159;49.426;11.182;2023-06-22T08:41:09;28.00;70.40
11538;DHT22;50159;49.426;11.182;2023-06-22T08:43:36;28.00;68.70
11538;DHT22;50159;49.426;11.182;2023-06-22T08:46:02;28.10;70.70
11538;DHT22;50159;49.426;11.182;2023-06-22T08:48:29;28.20;69.50
11538;DHT22;50159;49.426;11.182;2023-06-22T08:50:56;28.30;68.90
11538;DHT22;50159;49.426;11.182;2023-06-22T08:53:23;28.50;68.50
11538;DHT22;50159;49.426;11.182;2023-06-22T08:55:49;28.50;66.80
11538;DHT22;50159;49.426;11.182;2023-06-22T08:58:17;28.60;67.40
11538;DHT22;50159;49.426;11.182;2023-06-22T09:00:44;28.70;67.00
11538;DHT22;50159;49.426;11.182;2023-06-22T09:03:11;29.00;66.90
11538;DHT22;50159;49.426;11.182;2023-06-22T09:05:38;29.10;66.30
11538;DHT22;50159;49.426;11.182;2023-06-22T09:08:05;29.20;65.30
11538;DHT22;50159;49.426;11.182;2023-06-22T09:10:32;29.30;64.40
11538;DHT22;50159;49.426;11.182;2023-06-22T09:12:59;29.40;63.00
11538;DHT22;50159;49.426;11.182;2023-06-22T09:15:26;29.40;62.30
11538;DHT22;50159;49.426;11.182;2023-06-22T09:17:52;29.50;63.10
11538;DHT22;50159;49.426;11.182;2023-06-22T09:20:21;29.50;61.30
11538;DHT22;50159;49.426;11.182;2023-06-22T09:22:47;29.50;60.00
11538;DHT22;50159;49.426;11.182;2023-06-22T09:25:14;29.60;60.70
11538;DHT22;50159;49.426;11.182;2023-06-22T09:27:41;29.60;59.70
11538;DHT22;50159;49.426;11.182;2023-06-22T09:30:08;29.70;60.40
11538;DHT22;50159;49.426;11.182;2023-06-22T09:32:35;29.80;59.60
11538;DHT22;50159;49.426;11.182;2023-06-22T09:35:05;29.80;58.20
11538;DHT22;50159;49.426;11.182;2023-06-22T09:37:33;29.90;58.50
11538;DHT22;50159;49.426;11.182;2023-06-22T09:40:00;29.90;58.10
11538;DHT22;50159;49.426;11.182;2023-06-22T09:42:26;30.00;59.20
11538;DHT22;50159;49.426;11.182;2023-06-22T09:44:53;30.10;58.80
11538;DHT22;50159;49.426;11.182;2023-06-22T09:47:20;30.10;58.00
11538;DHT22;50159;49.426;11.182;2023-06-22T09:49:46;30.10;58.20
11538;DHT22;50159;49.426;11.182;2023-06-22T09:52:15;30.30;57.60
11538;DHT22;50159;49.426;11.182;2023-06-22T09:54:42;30.30;57.20
11538;DHT22;50159;49.426;11.182;2023-06-22T09:57:09;30.30;57.50
11538;DHT22;50159;49.426;11.182;2023-06-22T09:59:35;30.40;57.20
11538;DHT22;50159;49.426;11.182;2023-06-22T10:02:02;30.40;57.00
11538;DHT22;50159;49.426;11.182;2023-06-22T10:04:29;30.60;57.60
11538;DHT22;50159;49.426;11.182;2023-06-22T10:06:56;30.70;57.60
11538;DHT22;50159;49.426;11.182;2023-06-22T10:09:23;30.90;56.30
11538;DHT22;50159;49.426;11.182;2023-06-22T10:11:49;30.90;56.60
11538;DHT22;50159;49.426;11.182;2023-06-22T10:14:16;31.10;56.90
11538;DHT22;50159;49.426;11.182;2023-06-22T10:16:43;31.10;54.20
11538;DHT22;50159;49.426;11.182;2023-06-22T10:19:10;31.10;55.10
11538;DHT22;50159;49.426;11.182;2023-06-22T10:21:36;31.10;55.30
11538;DHT22;50159;49.426;11.182;2023-06-22T10:24:03;31.10;55.40
11538;DHT22;50159;49.426;11.182;2023-06-22T10:26:33;31.30;54.40
11538;DHT22;50159;49.426;11.182;2023-06-22T10:29:00;31.20;53.70
11538;DHT22;50159;49.426;11.182;2023-06-22T10:31:33;31.20;54.20
11538;DHT22;50159;49.426;11.182;2023-06-22T10:34:00;31.30;54.20
11538;DHT22;50159;49.426;11.182;2023-06-22T10:36:26;31.50;53.80
11538;DHT22;50159;49.426;11.182;2023-06-22T10:38:53;31.60;53.50
11538;DHT22;50159;49.426;11.182;2023-06-22T10:41:21;31.70;53.00
11538;DHT22;50159;49.426;11.182;2023-06-22T10:43:48;31.90;53.80
11538;DHT22;50159;49.426;11.182;2023-06-22T10:46:15;32.10;52.00
11538;DHT22;50159;49.426;11.182;2023-06-22T10:48:42;32.10;51.50
11538;DHT22;50159;49.426;11.182;2023-06-22T10:51:08;32.20;51.40
11538;DHT22;50159;49.426;11.182;2023-06-22T10:53:35;32.20;50.70
11538;DHT22;50159;49.426;11.182;2023-06-22T10:56:02;32.30;50.80
11538;DHT22;50159;49.426;11.182;2023-06-22T10:58:28;32.40;50.30
11538;DHT22;50159;49.426;11.182;2023-06-22T11:00:55;32.30;49.20
11538;DHT22;50159;49.426;11.182;2023-06-22T11:03:22;32.30;50.40
11538;DHT22;50159;49.426;11.182;2023-06-22T11:05:49;32.40;50.70
11538;DHT22;50159;49.426;11.182;2023-06-22T11:08:16;32.60;49.90
11538;DHT22;50159;49.426;11.182;2023-06-22T11:10:43;32.60;50.40
11538;DHT22;50159;49.426;11.182;2023-06-22T11:13:10;32.60;49.30
11538;DHT22;50159;49.426;11.182;2023-06-22T11:15:38;32.70;49.50
11538;DHT22;50159;49.426;11.182;2023-06-22T11:18:05;32.90;50.20
11538;DHT22;50159;49.426;11.182;2023-06-22T11:20:33;33.20;50.40
11538;DHT22;50159;49.426;11.182;2023-06-22T11:23:05;33.10;48.00
11538;DHT22;50159;49.426;11.182;2023-06-22T11:25:33;33.10;48.90
11538;DHT22;50159;49.426;11.182;2023-06-22T11:28:02;33.30;49.10
11538;DHT22;50159;49.426;11.182;2023-06-22T11:30:29;33.50;48.50
11538;DHT22;50159;49.426;11.182;2023-06-22T11:32:58;33.50;47.90
11538;DHT22;50159;49.426;11.182;2023-06-22T11:35:26;33.50;47.80
11538;DHT22;50159;49.426;11.182;2023-06-22T11:37:52;33.40;48.00
11538;DHT22;50159;49.426;11.182;2023-06-22T11:40:19;33.30;47.40
11538;DHT22;50159;49.426;11.182;2023-06-22T11:42:46;33.40;47.60
11538;DHT22;50159;49.426;11.182;2023-06-22T11:45:13;33.40;47.80
11538;DHT22;50159;49.426;11.182;2023-06-22T11:47:39;33.40;47.90
11538;DHT22;50159;49.426;11.182;2023-06-22T11:50:07;33.50;47.40
11538;DHT22;50159;49.426;11.182;2023-06-22T11:52:34;33.60;47.90
11538;DHT22;50159;49.426;11.182;2023-06-22T11:55:02;33.90;47.90
11538;DHT22;50159;49.426;11.182;2023-06-22T11:57:36;34.10;46.70
11538;DHT22;50159;49.426;11.182;2023-06-22T12:00:04;34.20;46.30
11538;DHT22;50159;49.426;11.182;2023-06-22T12:02:43;34.20;46.10
11538;DHT22;50159;49.426;11.182;2023-06-22T12:05:11;34.40;46.50
11538;DHT22;50159;49.426;11.182;2023-06-22T12:07:38;34.50;46.50
11538;DHT22;50159;49.426;11.182;2023-06-22T12:10:06;34.60;45.60
11538;DHT22;50159;49.426;11.182;2023-06-22T12:12:32;34.50;44.80
11538;DHT22;50159;49.426;11.182;2023-06-22T12:14:59;34.60;45.90
11538;DHT22;50159;49.426;11.182;2023-06-22T12:17:30;34.60;44.50
11538;DHT22;50159;49.426;11.182;2023-06-22T12:19:58;34.60;44.20
11538;DHT22;50159;49.426;11.182;2023-06-22T12:22:24;34.50;43.80
11538;DHT22;50159;49.426;11.182;2023-06-22T12:24:51;34.60;44.90
11538;DHT22;50159;49.426;11.182;2023-06-22T12:27:18;34.80;44.50
11538;DHT22;50159;49.426;11.182;2023-06-22T12:29:46;34.90;44.60
11538;DHT22;50159;49.426;11.182;2023-06-22T12:32:13;35.10;44.30
11538;DHT22;50159;49.426;11.182;2023-06-22T12:34:42;35.20;44.00
11538;DHT22;50159;49.426;11.182;2023-06-22T12:37:09;35.30;43.90
11538;DHT22;50159;49.426;11.182;2023-06-22T12:39:36;35.60;43.40
11538;DHT22;50159;49.426;11.182;2023-06-22T12:42:02;35.60;42.60
11538;DHT22;50159;49.426;11.182;2023-06-22T12:44:29;35.70;42.60
11538;DHT22;50159;49.426;11.182;2023-06-22T12:46:56;35.90;42.50
11538;DHT22;50159;49.426;11.182;2023-06-22T12:49:23;36.20;42.70
11538;DHT22;50159;49.426;11.182;2023-06-22T12:51:49;36.30;41.30
11538;DHT22;50159;49.426;11.182;2023-06-22T12:54:16;36.40;41.30
11538;DHT22;50159;49.426;11.182;2023-06-22T12:56:43;36.60;40.80
11538;DHT22;50159;49.426;11.182;2023-06-22T12:59:11;36.50;40.10
11538;DHT22;50159;49.426;11.182;2023-06-22T13:01:38;36.30;40.40
11538;DHT22;50159;49.426;11.182;2023-06-22T13:04:05;35.80;40.80
11538;DHT22;50159;49.426;11.182;2023-06-22T13:06:32;35.60;41.60
11538;DHT22;50159;49.426;11.182;2023-06-22T13:08:58;35.50;41.60
11538;DHT22;50159;49.426;11.182;2023-06-22T13:11:45;35.60;41.90
11538;DHT22;50159;49.426;11.182;2023-06-22T13:14:12;36.00;42.10
11538;DHT22;50159;49.426;11.182;2023-06-22T13:16:38;36.10;40.50
11538;DHT22;50159;49.426;11.182;2023-06-22T13:19:05;36.10;40.70
11538;DHT22;50159;49.426;11.182;2023-06-22T13:21:34;36.00;40.20
11538;DHT22;50159;49.426;11.182;2023-06-22T13:24:00;35.70;41.00
11538;DHT22;50159;49.426;11.182;2023-06-22T13:26:27;35.40;41.10
11538;DHT22;50159;49.426;11.182;2023-06-22T13:28:57;35.10;41.80
11538;DHT22;50159;49.426;11.182;2023-06-22T13:31:24;35.10;42.10
11538;DHT22;50159;49.426;11.182;2023-06-22T13:33:51;35.20;42.90
11538;DHT22;50159;49.426;11.182;2023-06-22T13:36:19;35.40;42.30
11538;DHT22;50159;49.426;11.182;2023-06-22T13:38:46;35.50;42.10
11538;DHT22;50159;49.426;11.182;2023-06-22T13:41:13;35.60;41.90
11538;DHT22;50159;49.426;11.182;2023-06-22T13:43:40;35.90;41.40
11538;DHT22;50159;49.426;11.182;2023-06-22T13:46:07;35.70;41.10
11538;DHT22;50159;49.426;11.182;2023-06-22T13:48:33;35.50;41.60
11538;DHT22;50159;49.426;11.182;2023-06-22T13:51:00;35.40;42.40
11538;DHT22;50159;49.426;11.182;2023-06-22T13:53:27;35.10;41.90
11538;DHT22;50159;49.426;11.182;2023-06-22T13:55:54;35.00;42.50
11538;DHT22;50159;49.426;11.182;2023-06-22T13:58:20;35.10;42.40
11538;DHT22;50159;49.426;11.182;2023-06-22T14:00:47;35.30;41.70
11538;DHT22;50159;49.426;11.182;2023-06-22T14:03:15;35.40;42.30
11538;DHT22;50159;49.426;11.182;2023-06-22T14:05:43;35.50;41.50
11538;DHT22;50159;49.426;11.182;2023-06-22T14:08:10;35.60;40.90
11538;DHT22;50159;49.426;11.182;2023-06-22T14:10:56;35.90;41.00
11538;DHT22;50159;49.426;11.182;2023-06-22T14:13:23;36.10;40.60
11538;DHT22;50159;49.426;11.182;2023-06-22T14:15:50;36.30;40.60
11538;DHT22;50159;49.426;11.182;2023-06-22T14:18:18;36.60;40.60
11538;DHT22;50159;49.426;11.182;2023-06-22T14:20:45;36.70;40.00
11538;DHT22;50159;49.426;11.182;2023-06-22T14:23:14;36.80;39.70
11538;DHT22;50159;49.426;11.182;2023-06-22T14:25:41;36.80;40.60
11538;DHT22;50159;49.426;11.182;2023-06-22T14:28:07;36.80;40.80
11538;DHT22;50159;49.426;11.182;2023-06-22T14:30:34;36.70;40.60
11538;DHT22;50159;49.426;11.182;2023-06-22T14:33:01;36.40;40.50
11538;DHT22;50159;49.426;11.182;2023-06-22T14:35:28;36.00;40.90
11538;DHT22;50159;49.426;11.182;2023-06-22T14:37:54;35.90;40.90
11538;DHT22;50159;49.426;11.182;2023-06-22T14:40:21;36.20;40.20
11538;DHT22;50159;49.426;11.182;2023-06-22T14:42:52;37.00;40.00
11538;DHT22;50159;49.426;11.182;2023-06-22T14:45:19;37.90;38.00
11538;DHT22;50159;49.426;11.182;2023-06-22T14:47:45;38.40;37.00
11538;DHT22;50159;49.426;11.182;2023-06-22T14:50:12;38.40;36.00
11538;DHT22;50159;49.426;11.182;2023-06-22T14:52:41;38.20;36.20
11538;DHT22;50159;49.426;11.182;2023-06-22T14:55:08;38.10;35.40
11538;DHT22;50159;49.426;11.182;2023-06-22T14:57:34;37.80;34.90
11538;DHT22;50159;49.426;11.182;2023-06-22T15:00:01;38.10;34.90
11538;DHT22;50159;49.426;11.182;2023-06-22T15:02:29;38.90;33.90
11538;DHT22;50159;49.426;11.182;2023-06-22T15:04:56;39.90;32.50
11538;DHT22;50159;49.426;11.182;2023-06-22T15:07:23;40.90;30.60
11538;DHT22;50159;49.426;11.182;2023-06-22T15:09:50;41.60;29.30
11538;DHT22;50159;49.426;11.182;2023-06-22T15:12:16;42.20;29.20
11538;DHT22;50159;49.426;11.182;2023-06-22T15:14:43;42.20;28.50
11538;DHT22;50159;49.426;11.182;2023-06-22T15:17:10;42.50;28.60
11538;DHT22;50159;49.426;11.182;2023-06-22T15:19:37;42.80;27.90